createdAt,value
2019-03-08T00:01:59.911Z,99.90
2019-03-08T00:04:31.180Z,99.90
2019-03-08T00:07:02.411Z,99.90
2019-03-08T00:09:33.750Z,99.90
2019-03-08T00:12:05.038Z,99.90
2019-03-08T00:14:36.396Z,99.90
2019-03-08T00:17:07.681Z,99.90
2019-03-08T00:19:38.946Z,99.90
2019-03-08T00:22:10.239Z,99.90
2019-03-08T00:24:41.581Z,99.90
2019-03-08T00:27:12.973Z,99.90
2019-03-08T00:29:44.423Z,99.90
2019-03-08T00:32:15.943Z,99.90
2019-03-08T00:34:47.339Z,99.90
2019-03-08T00:37:19.080Z,99.90
2019-03-08T00:39:51.961Z,99.90
2019-03-08T00:42:23.180Z,99.90
2019-03-08T00:44:54.533Z,99.60
2019-03-08T00:47:25.760Z,99.60
2019-03-08T00:49:57.359Z,99.90
2019-03-08T00:52:28.580Z,99.90
2019-03-08T00:54:59.857Z,99.90
2019-03-08T00:57:32.330Z,99.90
2019-03-08T01:00:05.610Z,99.90
2019-03-08T01:02:36.977Z,99.90
2019-03-08T01:05:09.471Z,99.90
2019-03-08T01:07:40.880Z,99.90
2019-03-08T01:10:17.205Z,99.90
2019-03-08T01:12:48.723Z,99.90
2019-03-08T01:15:20.974Z,99.90
2019-03-08T01:17:52.315Z,99.90
2019-03-08T01:20:23.670Z,99.90
2019-03-08T01:22:57.030Z,99.90
2019-03-08T01:25:28.388Z,99.90
2019-03-08T01:28:09.693Z,99.90
2019-03-08T01:30:42.148Z,99.90
2019-03-08T01:33:13.584Z,99.90
2019-03-08T01:35:44.881Z,99.90
2019-03-08T01:38:16.240Z,99.90
2019-03-08T01:40:51.132Z,99.90
2019-03-08T01:43:22.478Z,99.90
2019-03-08T01:45:53.967Z,99.90
2019-03-08T01:48:25.313Z,99.90
2019-03-08T01:50:56.529Z,99.90
2019-03-08T01:53:28.008Z,99.90
2019-03-08T01:55:59.222Z,99.90
2019-03-08T01:58:30.620Z,99.90
2019-03-08T02:01:01.889Z,99.90
2019-03-08T02:03:33.325Z,99.90
2019-03-08T02:06:04.603Z,99.90
2019-03-08T02:08:35.885Z,99.90
2019-03-08T02:11:07.240Z,99.90
2019-03-08T02:13:38.460Z,99.90
2019-03-08T02:16:09.856Z,99.90
2019-03-08T02:18:41.064Z,99.90
2019-03-08T02:21:12.329Z,99.90
2019-03-08T02:23:43.544Z,99.90
2019-03-08T02:26:16.573Z,99.90
2019-03-08T02:28:47.790Z,99.90
2019-03-08T02:31:19.156Z,99.90
2019-03-08T02:33:50.439Z,99.90
2019-03-08T02:36:23.396Z,99.90
2019-03-08T02:38:54.722Z,99.90
2019-03-08T02:41:26.050Z,99.90
2019-03-08T02:43:57.441Z,99.90
2019-03-08T02:46:28.833Z,99.90
2019-03-08T02:49:00.173Z,99.90
2019-03-08T02:51:31.381Z,99.90
2019-03-08T02:54:02.761Z,99.90
2019-03-08T02:56:34.126Z,99.90
2019-03-08T02:59:05.337Z,99.90
2019-03-08T03:01:37.766Z,99.90
2019-03-08T03:04:09.077Z,99.90
2019-03-08T03:06:40.292Z,99.90
2019-03-08T03:09:11.693Z,99.90
2019-03-08T03:11:43.294Z,99.90
2019-03-08T03:14:14.545Z,99.90
2019-03-08T03:16:45.757Z,99.90
2019-03-08T03:19:17.089Z,99.90
2019-03-08T03:21:48.572Z,99.90
2019-03-08T03:24:19.854Z,99.90
2019-03-08T03:26:51.049Z,99.90
2019-03-08T03:29:22.272Z,99.90
2019-03-08T03:31:53.541Z,99.90
2019-03-08T03:34:24.939Z,99.90
2019-03-08T03:36:56.196Z,99.90
2019-03-08T03:39:27.417Z,99.90
2019-03-08T03:41:58.685Z,99.90
2019-03-08T03:44:30.101Z,99.90
2019-03-08T03:47:01.544Z,99.90
2019-03-08T03:49:32.759Z,99.90
2019-03-08T03:52:04.021Z,99.90
2019-03-08T03:54:35.233Z,99.90
2019-03-08T03:57:06.780Z,99.90
2019-03-08T03:59:37.998Z,99.80
2019-03-08T04:02:09.330Z,99.90
2019-03-08T04:04:40.614Z,99.70
2019-03-08T04:07:11.943Z,99.90
2019-03-08T04:09:43.151Z,99.80
2019-03-08T04:12:14.473Z,99.90
2019-03-08T04:14:45.681Z,99.90
2019-03-08T04:17:16.945Z,99.90
2019-03-08T04:19:48.159Z,99.90
2019-03-08T04:22:19.428Z,99.30
2019-03-08T04:24:50.709Z,99.40
2019-03-08T04:27:21.980Z,99.40
2019-03-08T04:29:56.596Z,99.50
2019-03-08T04:32:26.277Z,99.60
2019-03-08T04:34:57.833Z,99.80
2019-03-08T04:37:29.099Z,99.90
2019-03-08T04:40:00.317Z,99.80
2019-03-08T04:42:31.652Z,99.90
2019-03-08T04:45:02.931Z,99.90
2019-03-08T04:47:34.690Z,99.90
2019-03-08T04:50:09.712Z,99.90
2019-03-08T04:52:41.112Z,99.80
2019-03-08T04:55:18.872Z,99.70
2019-03-08T04:57:50.519Z,99.90
2019-03-08T05:00:28.003Z,99.90
2019-03-08T05:02:59.399Z,99.90
2019-03-08T05:05:30.610Z,99.90
2019-03-08T05:08:01.879Z,99.80
2019-03-08T05:10:33.160Z,99.50
2019-03-08T05:13:04.483Z,99.40
2019-03-08T05:15:35.710Z,99.30
2019-03-08T05:18:07.108Z,99.20
2019-03-08T05:20:38.322Z,99.00
2019-03-08T05:23:09.575Z,99.30
2019-03-08T05:25:40.785Z,99.50
2019-03-08T05:28:12.043Z,99.70
2019-03-08T05:30:43.309Z,99.60
2019-03-08T05:33:14.702Z,99.60
2019-03-08T05:35:45.914Z,99.60
2019-03-08T05:38:17.178Z,99.50
2019-03-08T05:40:48.463Z,99.70
2019-03-08T05:43:19.801Z,99.40
2019-03-08T05:45:51.161Z,99.50
2019-03-08T05:48:22.419Z,99.60
2019-03-08T05:50:53.632Z,99.50
2019-03-08T05:53:24.969Z,99.60
2019-03-08T05:55:56.189Z,99.10
2019-03-08T05:58:27.875Z,99.10
2019-03-08T06:00:59.228Z,99.40
2019-03-08T06:03:30.590Z,99.40
2019-03-08T06:06:01.786Z,99.30
2019-03-08T06:08:33.044Z,99.60
2019-03-08T06:11:05.041Z,99.50
2019-03-08T06:13:36.285Z,99.50
2019-03-08T06:16:07.502Z,99.00
2019-03-08T06:18:38.763Z,98.80
2019-03-08T06:21:10.047Z,98.80
2019-03-08T06:23:41.399Z,99.10
2019-03-08T06:26:12.609Z,99.30
2019-03-08T06:28:43.948Z,99.50
2019-03-08T06:31:15.175Z,99.40
2019-03-08T06:33:46.485Z,99.20
2019-03-08T06:36:17.693Z,98.90
2019-03-08T06:38:48.983Z,98.70
2019-03-08T06:41:20.268Z,98.80
2019-03-08T06:43:51.533Z,98.80
2019-03-08T06:46:22.822Z,98.90
2019-03-08T06:48:54.363Z,99.30
2019-03-08T06:51:25.582Z,99.00
2019-03-08T06:53:56.843Z,99.30
2019-03-08T06:56:28.058Z,98.70
2019-03-08T06:59:06.449Z,98.40
2019-03-08T07:01:38.138Z,98.70
2019-03-08T07:04:09.406Z,98.70
2019-03-08T07:06:40.629Z,98.30
2019-03-08T07:09:11.969Z,98.10
2019-03-08T07:11:43.247Z,98.40
2019-03-08T07:14:14.608Z,98.20
2019-03-08T07:16:45.870Z,98.00
2019-03-08T07:19:17.187Z,98.10
2019-03-08T07:21:50.067Z,97.70
2019-03-08T07:24:26.155Z,97.60
2019-03-08T07:27:15.545Z,97.60
2019-03-08T07:30:00.488Z,97.30
2019-03-08T07:32:36.162Z,97.50
2019-03-08T07:35:08.197Z,96.80
2019-03-08T07:37:41.139Z,97.80
2019-03-08T07:40:15.836Z,97.80
2019-03-08T07:42:49.089Z,98.10
2019-03-08T07:45:26.025Z,97.80
2019-03-08T07:47:57.092Z,97.70
2019-03-08T07:50:30.009Z,98.60
2019-03-08T07:53:03.213Z,98.00
2019-03-08T07:55:52.295Z,97.80
2019-03-08T07:58:36.947Z,97.90
2019-03-08T08:01:12.626Z,97.80
2019-03-08T08:03:51.506Z,98.10
2019-03-08T08:06:36.202Z,97.90
2019-03-08T08:09:14.806Z,98.20
2019-03-08T08:11:53.684Z,97.90
2019-03-08T08:14:26.565Z,98.10
2019-03-08T08:17:05.194Z,98.10
2019-03-08T08:19:36.250Z,98.10
2019-03-08T08:22:07.421Z,98.40
2019-03-08T08:24:56.351Z,98.40
2019-03-08T08:27:29.255Z,98.10
2019-03-08T08:30:14.141Z,98.30
2019-03-08T08:33:04.611Z,98.30
2019-03-08T08:35:42.508Z,98.80
2019-03-08T08:38:18.985Z,98.90
2019-03-08T08:40:51.954Z,98.60
2019-03-08T08:43:27.601Z,98.80
2019-03-08T08:46:09.383Z,98.70
2019-03-08T08:48:46.507Z,98.90
2019-03-08T08:51:19.654Z,98.20
2019-03-08T08:53:56.291Z,98.40
2019-03-08T08:56:45.326Z,98.50
2019-03-08T08:59:18.583Z,97.80
2019-03-08T09:02:07.576Z,98.30
2019-03-08T09:04:42.166Z,98.20
2019-03-08T09:07:15.112Z,98.20
2019-03-08T09:09:59.889Z,98.40
2019-03-08T09:12:36.655Z,98.30
2019-03-08T09:15:16.381Z,98.50
2019-03-08T09:17:52.219Z,98.90
2019-03-08T09:20:41.318Z,98.90
2019-03-08T09:23:14.191Z,98.40
2019-03-08T09:25:53.001Z,98.40
2019-03-08T09:28:42.028Z,98.40
2019-03-08T09:31:13.065Z,98.30
2019-03-08T09:34:01.251Z,98.40
2019-03-08T09:36:34.173Z,98.00
2019-03-08T09:39:12.788Z,98.30
2019-03-08T09:41:45.766Z,98.30
2019-03-08T09:44:21.312Z,98.30
2019-03-08T09:46:59.819Z,98.30
2019-03-08T09:49:32.679Z,98.30
2019-03-08T09:52:05.604Z,98.60
2019-03-08T09:54:38.635Z,98.70
2019-03-08T09:57:11.682Z,98.70
2019-03-08T09:59:54.529Z,98.80
2019-03-08T10:02:30.531Z,99.20
2019-03-08T10:05:04.366Z,99.40
2019-03-08T10:07:40.313Z,99.60
2019-03-08T10:10:29.533Z,99.90
2019-03-08T10:13:14.373Z,99.90
2019-03-08T10:15:47.241Z,99.90
2019-03-08T10:18:20.152Z,99.90
2019-03-08T10:20:53.888Z,99.90
2019-03-08T10:23:44.013Z,99.90
2019-03-08T10:26:19.324Z,99.90
2019-03-08T10:29:08.985Z,99.90
2019-03-08T10:31:47.705Z,99.90
2019-03-08T10:34:27.656Z,99.90
2019-03-08T10:37:13.671Z,99.90
2019-03-08T10:40:01.661Z,99.90
2019-03-08T10:42:35.596Z,99.90
2019-03-08T10:45:17.331Z,99.90
2019-03-08T10:47:56.463Z,99.90
2019-03-08T10:50:35.195Z,99.90
2019-03-08T10:53:15.187Z,99.90
2019-03-08T10:55:49.241Z,99.90
2019-03-08T10:58:25.859Z,99.90
2019-03-08T11:01:11.171Z,99.90
2019-03-08T11:03:59.241Z,99.90
2019-03-08T11:06:42.462Z,99.90
2019-03-08T11:09:36.499Z,99.90
2019-03-08T11:12:10.531Z,99.90
2019-03-08T11:14:49.149Z,99.90
2019-03-08T11:17:30.010Z,99.90
2019-03-08T11:20:18.848Z,99.90
2019-03-08T11:23:09.517Z,99.90
2019-03-08T11:25:52.571Z,99.90
2019-03-08T11:28:42.700Z,99.80
2019-03-08T11:31:22.824Z,99.70
2019-03-08T11:33:58.352Z,99.60
2019-03-08T11:36:47.414Z,99.90
2019-03-08T11:39:20.351Z,99.90
2019-03-08T11:41:53.216Z,99.90
2019-03-08T11:44:32.717Z,99.90
2019-03-08T11:47:21.975Z,99.90
2019-03-08T11:49:55.061Z,99.90
2019-03-08T11:52:28.547Z,99.90
2019-03-08T11:55:11.450Z,99.70
2019-03-08T11:57:57.569Z,99.00
2019-03-08T12:00:33.551Z,98.70
2019-03-08T12:03:09.276Z,99.30
2019-03-08T12:05:43.326Z,99.00
2019-03-08T12:08:23.112Z,99.10
2019-03-08T12:11:20.087Z,98.20
2019-03-08T12:14:09.462Z,98.20
2019-03-08T12:16:43.244Z,97.90
2019-03-08T12:19:32.456Z,97.20
2019-03-08T12:22:21.505Z,97.40
2019-03-08T12:25:10.952Z,97.00
2019-03-08T12:27:44.628Z,97.40
2019-03-08T12:30:20.398Z,96.80
2019-03-08T12:33:09.068Z,96.50
2019-03-08T12:35:58.326Z,96.10
2019-03-08T12:38:34.008Z,96.80
2019-03-08T12:41:23.518Z,95.70
2019-03-08T12:44:12.787Z,95.90
2019-03-08T12:46:45.725Z,96.00
2019-03-08T12:49:34.758Z,95.60
2019-03-08T12:52:07.908Z,95.70
2019-03-08T12:54:59.056Z,95.30
2019-03-08T12:57:32.952Z,95.40
2019-03-08T13:00:11.452Z,95.60
2019-03-08T13:02:57.178Z,94.70
2019-03-08T13:05:38.849Z,94.40
2019-03-08T13:08:11.788Z,94.60
2019-03-08T13:10:43.161Z,94.60
2019-03-08T13:13:14.394Z,95.30
2019-03-08T13:15:45.823Z,95.10
2019-03-08T13:18:17.128Z,94.60
2019-03-08T13:20:48.693Z,95.30
2019-03-08T13:23:19.995Z,93.60
2019-03-08T13:25:51.354Z,94.20
2019-03-08T13:28:22.661Z,93.00
2019-03-08T13:30:54.081Z,92.00
2019-03-08T13:33:25.472Z,93.00
2019-03-08T13:35:56.819Z,93.40
2019-03-08T13:38:28.060Z,93.40
2019-03-08T13:40:59.621Z,93.70
2019-03-08T13:43:30.832Z,94.40
2019-03-08T13:46:02.205Z,94.60
2019-03-08T13:48:34.780Z,95.40
2019-03-08T13:51:07.225Z,95.80
2019-03-08T13:53:38.459Z,96.40
2019-03-08T13:56:09.756Z,97.80
2019-03-08T13:58:41.063Z,98.30
2019-03-08T14:01:12.437Z,97.90
2019-03-08T14:03:43.798Z,98.40
2019-03-08T14:06:15.107Z,99.50
2019-03-08T14:08:46.621Z,99.30
2019-03-08T14:11:17.976Z,99.20
2019-03-08T14:13:49.284Z,98.90
2019-03-08T14:16:20.786Z,99.10
2019-03-08T14:18:52.173Z,98.90
2019-03-08T14:21:23.633Z,97.30
2019-03-08T14:23:54.937Z,96.20
2019-03-08T14:26:26.329Z,96.60
2019-03-08T14:28:57.707Z,96.00
2019-03-08T14:31:45.459Z,95.00
2019-03-08T14:34:17.035Z,94.50
2019-03-08T14:36:50.143Z,93.80
2019-03-08T14:39:21.720Z,93.60
2019-03-08T14:42:03.922Z,93.70
2019-03-08T14:44:51.677Z,93.00
2019-03-08T14:47:33.338Z,92.70
2019-03-08T14:50:08.114Z,91.90
2019-03-08T14:52:39.471Z,92.70
2019-03-08T14:55:15.306Z,91.50
2019-03-08T14:57:48.426Z,92.10
2019-03-08T15:00:25.229Z,91.40
2019-03-08T15:02:55.533Z,90.40
2019-03-08T15:05:26.764Z,90.80
2019-03-08T15:07:58.113Z,88.90
2019-03-08T15:10:38.787Z,90.40
2019-03-08T15:13:02.623Z,91.70
2019-03-08T15:15:33.859Z,90.30
2019-03-08T15:18:05.361Z,87.90
2019-03-08T15:20:37.871Z,89.40
2019-03-08T15:23:09.479Z,89.70
2019-03-08T15:25:41.002Z,90.20
2019-03-08T15:28:12.303Z,89.50
2019-03-08T15:30:43.612Z,90.60
2019-03-08T15:33:16.457Z,87.90
2019-03-08T15:35:48.086Z,89.30
2019-03-08T15:38:19.453Z,90.00
2019-03-08T15:40:50.827Z,87.90
2019-03-08T15:43:22.210Z,87.40
2019-03-08T15:45:53.541Z,85.90
2019-03-08T15:48:25.007Z,88.60
2019-03-08T15:50:56.242Z,88.40
2019-03-08T15:53:27.840Z,87.10
2019-03-08T15:55:59.074Z,88.30
2019-03-08T15:58:30.953Z,87.40
2019-03-08T16:01:02.258Z,88.70
2019-03-08T16:03:35.055Z,87.70
2019-03-08T16:06:07.530Z,84.70
2019-03-08T16:08:39.751Z,86.50
2019-03-08T16:11:12.130Z,87.20
2019-03-08T16:13:43.610Z,86.80
2019-03-08T16:16:14.908Z,85.00
2019-03-08T16:18:48.074Z,85.90
2019-03-08T16:21:19.405Z,86.30
2019-03-08T16:23:51.763Z,82.90
2019-03-08T16:26:25.349Z,85.40
2019-03-08T16:28:56.190Z,86.60
2019-03-08T16:31:30.442Z,82.50
2019-03-08T16:34:09.846Z,83.30
2019-03-08T16:36:42.956Z,85.70
2019-03-08T16:39:15.820Z,85.50
2019-03-08T16:42:09.230Z,84.10
2019-03-08T16:44:42.162Z,86.20
2019-03-08T16:47:24.021Z,85.20
2019-03-08T16:49:57.886Z,84.50
2019-03-08T16:52:42.007Z,86.10
2019-03-08T16:55:20.749Z,85.40
2019-03-08T16:57:59.865Z,85.80
2019-03-08T17:00:34.207Z,86.60
2019-03-08T17:03:08.383Z,86.50
2019-03-08T17:05:43.808Z,87.40
2019-03-08T17:08:30.350Z,87.20
2019-03-08T17:11:13.123Z,86.80
2019-03-08T17:13:45.528Z,87.90
2019-03-08T17:16:21.803Z,88.00
2019-03-08T17:18:54.894Z,87.50
2019-03-08T17:21:29.659Z,86.40
2019-03-08T17:24:02.728Z,86.90
2019-03-08T17:26:52.257Z,88.40
2019-03-08T17:29:44.827Z,88.20
2019-03-08T17:32:23.171Z,88.40
2019-03-08T17:35:00.276Z,90.30
2019-03-08T17:37:35.973Z,90.30
2019-03-08T17:40:13.206Z,90.70
2019-03-08T17:42:54.985Z,90.50
2019-03-08T17:45:44.300Z,91.20
2019-03-08T17:48:18.236Z,91.30
2019-03-08T17:51:08.741Z,91.90
2019-03-08T17:53:44.709Z,92.30
2019-03-08T17:56:34.068Z,91.90
2019-03-08T17:59:07.075Z,92.00
2019-03-08T18:01:40.488Z,92.20
2019-03-08T18:04:16.559Z,92.90
2019-03-08T18:06:50.708Z,92.60
2019-03-08T18:09:33.268Z,92.80
2019-03-08T18:12:06.189Z,93.00
2019-03-08T18:14:51.227Z,92.80
2019-03-08T18:17:30.176Z,92.10
2019-03-08T18:20:06.022Z,92.10
2019-03-08T18:22:41.668Z,92.40
2019-03-08T18:25:30.069Z,92.50
2019-03-08T18:28:03.254Z,92.50
2019-03-08T18:30:42.131Z,92.70
2019-03-08T18:33:15.240Z,93.10
2019-03-08T18:35:48.275Z,93.10
2019-03-08T18:38:38.829Z,93.30
2019-03-08T18:41:11.831Z,93.30
2019-03-08T18:44:01.085Z,93.40
2019-03-08T18:46:37.127Z,93.30
2019-03-08T18:49:10.133Z,93.50
2019-03-08T18:51:47.012Z,93.90
2019-03-08T18:54:25.715Z,93.70
2019-03-08T18:57:11.183Z,93.40
2019-03-08T18:59:46.981Z,93.70
2019-03-08T19:02:20.875Z,93.90
2019-03-08T19:04:54.182Z,94.00
2019-03-08T19:07:43.144Z,93.90
2019-03-08T19:10:17.515Z,94.00
2019-03-08T19:12:58.105Z,94.30
2019-03-08T19:15:29.318Z,94.30
2019-03-08T19:18:17.182Z,94.50
2019-03-08T19:20:48.697Z,94.50
2019-03-08T19:23:21.878Z,94.70
2019-03-08T19:26:00.755Z,94.90
2019-03-08T19:28:50.290Z,94.90
2019-03-08T19:31:26.311Z,94.90
2019-03-08T19:34:18.531Z,95.10
2019-03-08T19:37:07.412Z,95.30
2019-03-08T19:39:55.744Z,95.10
2019-03-08T19:42:45.218Z,95.00
2019-03-08T19:45:30.489Z,95.30
2019-03-08T19:48:12.850Z,95.50
2019-03-08T19:50:54.820Z,95.10
2019-03-08T19:53:26.980Z,95.50
2019-03-08T19:56:00.886Z,95.60
2019-03-08T19:58:33.948Z,95.50
2019-03-08T20:01:06.877Z,95.70
2019-03-08T20:03:50.524Z,95.40
2019-03-08T20:06:35.262Z,95.40
2019-03-08T20:09:10.309Z,95.70
2019-03-08T20:11:59.587Z,95.30
2019-03-08T20:14:44.835Z,95.50
2019-03-08T20:17:24.207Z,95.30
2019-03-08T20:19:57.895Z,95.20
2019-03-08T20:22:47.434Z,94.30
2019-03-08T20:25:32.867Z,94.40
2019-03-08T20:28:06.642Z,94.10
2019-03-08T20:30:39.752Z,94.20
2019-03-08T20:33:25.810Z,94.10
2019-03-08T20:36:01.854Z,94.10
2019-03-08T20:38:54.352Z,94.40
2019-03-08T20:41:30.245Z,94.10
2019-03-08T20:44:07.197Z,94.10
2019-03-08T20:46:40.218Z,94.00
2019-03-08T20:49:11.429Z,93.60
2019-03-08T20:51:42.777Z,93.80
2019-03-08T20:54:14.008Z,93.90
2019-03-08T20:56:45.341Z,93.80
2019-03-08T20:59:16.927Z,93.90
2019-03-08T21:01:48.444Z,94.40
2019-03-08T21:04:20.202Z,94.10
2019-03-08T21:06:51.623Z,94.00
2019-03-08T21:09:23.191Z,94.10
2019-03-08T21:11:54.649Z,93.90
2019-03-08T21:14:25.928Z,93.80
2019-03-08T21:16:57.272Z,94.10
2019-03-08T21:19:28.499Z,93.60
2019-03-08T21:21:59.838Z,93.30
2019-03-08T21:24:31.124Z,93.00
2019-03-08T21:27:02.431Z,93.20
2019-03-08T21:29:33.712Z,93.10
2019-03-08T21:32:07.439Z,93.00
2019-03-08T21:34:40.015Z,93.00
2019-03-08T21:37:11.379Z,92.60
2019-03-08T21:39:42.762Z,92.50
2019-03-08T21:42:14.168Z,92.50
2019-03-08T21:44:45.456Z,92.70
2019-03-08T21:47:16.722Z,92.50
2019-03-08T21:49:47.947Z,92.30
2019-03-08T21:52:19.342Z,92.20
2019-03-08T21:54:50.873Z,92.30
2019-03-08T21:57:22.138Z,92.20
2019-03-08T21:59:53.356Z,92.10
2019-03-08T22:02:24.692Z,91.80
2019-03-08T22:04:56.785Z,92.20
2019-03-08T22:07:28.066Z,92.30
2019-03-08T22:10:00.946Z,92.50
2019-03-08T22:12:33.815Z,92.50
2019-03-08T22:15:07.048Z,92.40
2019-03-08T22:17:38.383Z,92.00
2019-03-08T22:20:09.812Z,92.30
2019-03-08T22:22:41.144Z,92.50
2019-03-08T22:25:13.919Z,92.70
2019-03-08T22:27:45.449Z,92.80
2019-03-08T22:30:21.066Z,93.30
2019-03-08T22:32:52.335Z,93.20
2019-03-08T22:35:23.561Z,93.30
2019-03-08T22:37:55.317Z,93.60
2019-03-08T22:40:26.597Z,93.60
2019-03-08T22:42:57.854Z,93.80
2019-03-08T22:45:30.134Z,94.00
2019-03-08T22:48:01.409Z,94.00
2019-03-08T22:50:32.803Z,93.90
2019-03-08T22:53:05.062Z,93.90
2019-03-08T22:55:36.417Z,94.10
2019-03-08T22:58:07.679Z,94.10
2019-03-08T23:00:59.871Z,93.90
2019-03-08T23:03:32.824Z,93.90
2019-03-08T23:06:04.255Z,94.20
2019-03-08T23:08:36.950Z,93.70
2019-03-08T23:11:08.240Z,93.70
2019-03-08T23:13:39.512Z,93.50
2019-03-08T23:16:10.799Z,93.50
2019-03-08T23:18:43.913Z,93.70
2019-03-08T23:21:15.138Z,93.50
2019-03-08T23:23:46.403Z,94.20
2019-03-08T23:26:17.699Z,94.60
2019-03-08T23:28:50.663Z,95.10
2019-03-08T23:31:26.586Z,95.20
2019-03-08T23:33:57.877Z,95.60
2019-03-08T23:36:30.247Z,96.00
2019-03-08T23:39:01.473Z,96.20
2019-03-08T23:41:34.413Z,95.90
2019-03-08T23:44:05.702Z,96.10
2019-03-08T23:46:36.982Z,96.20
2019-03-08T23:49:08.268Z,96.20
2019-03-08T23:51:39.536Z,96.20
2019-03-08T23:54:11.772Z,96.30
2019-03-08T23:56:43.336Z,96.40
2019-03-08T23:59:14.555Z,96.40
